Time;durP1;ratioP1;P1;durP2;ratioP2;P2;SDS_P1;SDS_P2;PMS_P1;PMS_P2;Temp;Humidity;BMP_temperature;BMP_pressure;BME280_temperature;BME280_humidity;BME280_pressure;Samples;Min_cycle;Max_cycle;Signal;HPM_P1;HPM_P2
2021/05/12 00:00:05;;;;;;;;;;;19.60;63.50;;;;;;5051552;28;1681;-70
2021/05/12 00:02:31;;;;;;;;;;;19.60;63.50;;;;;;5051167;28;1638;-70
2021/05/12 00:04:56;;;;;;;;;;;19.60;63.50;;;;;;5051484;28;1410;-70
2021/05/12 00:07:21;;;;;;;;;;;19.60;63.50;;;;;;5051019;28;1372;-70
2021/05/12 00:09:47;;;;;;;;;;;19.60;63.50;;;;;;5051731;28;1945;-70
2021/05/12 00:12:12;;;;;;;;;;;19.60;63.50;;;;;;5055502;28;1348;-70
2021/05/12 00:14:38;;;;;;;;;;;19.60;63.50;;;;;;5053767;28;1451;-70
2021/05/12 00:17:04;;;;;;;;;;;19.60;63.50;;;;;;5055124;28;1420;-70
2021/05/12 00:19:30;;;;;;;;;;;19.60;63.50;;;;;;5055455;28;1467;-71
2021/05/12 00:22:29;;;;;;;;;;;19.60;63.50;;;;;;5055412;28;1220;-70
2021/05/12 00:24:44;;;;;;;;;;;19.60;63.60;;;;;;5054986;28;1428;-70
2021/05/12 00:27:09;;;;;;;;;;;19.60;63.50;;;;;;5051131;28;1783;-70
2021/05/12 00:29:35;;;;;;;;;;;19.60;63.60;;;;;;5055615;28;1959;-71
2021/05/12 00:32:00;;;;;;;;;;;19.50;63.50;;;;;;5055548;28;1568;-70
2021/05/12 00:34:26;;;;;;;;;;;19.60;63.50;;;;;;5054319;28;1666;-70
2021/05/12 00:36:51;;;;;;;;;;;19.60;63.50;;;;;;5054997;28;1109;-71
2021/05/12 00:39:17;;;;;;;;;;;19.60;63.50;;;;;;5055178;28;1425;-70
2021/05/12 00:41:42;;;;;;;;;;;19.50;63.50;;;;;;5055169;28;1150;-69
2021/05/12 00:44:14;;;;;;;;;;;19.60;63.60;;;;;;5043808;28;1081;-70
2021/05/12 00:46:43;;;;;;;;;;;19.60;63.60;;;;;;5062786;28;1730;-69
2021/05/12 00:49:09;;;;;;;;;;;19.60;63.60;;;;;;5045746;28;1243;-69
2021/05/12 00:51:34;;;;;;;;;;;19.50;63.50;;;;;;5048071;28;1961;-70
2021/05/12 00:53:59;;;;;;;;;;;19.60;63.60;;;;;;5045806;28;1255;-71
2021/05/12 00:56:25;;;;;;;;;;;19.50;63.50;;;;;;5048458;28;1642;-71
2021/05/12 00:58:50;;;;;;;;;;;19.50;63.50;;;;;;5046499;28;1254;-70
2021/05/12 01:01:16;;;;;;;;;;;19.50;63.50;;;;;;5049005;28;1294;-71
2021/05/12 01:03:41;;;;;;;;;;;19.50;63.50;;;;;;5047649;28;1226;-69
2021/05/12 01:06:19;;;;;;;;;;;19.50;63.50;;;;;;5046866;28;1239;-71
2021/05/12 01:08:44;;;;;;;;;;;19.50;63.50;;;;;;5043722;28;1409;-70
2021/05/12 01:11:10;;;;;;;;;;;19.50;63.50;;;;;;5045201;28;1914;-70
2021/05/12 01:13:35;;;;;;;;;;;19.50;63.50;;;;;;5045408;28;1312;-70
2021/05/12 01:16:01;;;;;;;;;;;19.50;63.50;;;;;;5049449;28;1250;-69
2021/05/12 01:18:26;;;;;;;;;;;19.60;63.60;;;;;;5047675;28;1243;-70
2021/05/12 01:20:58;;;;;;;;;;;19.50;63.60;;;;;;5049688;28;1304;-70
2021/05/12 01:23:25;;;;;;;;;;;19.50;63.60;;;;;;5045108;28;1441;-69
2021/05/12 01:25:51;;;;;;;;;;;19.50;63.60;;;;;;5052114;28;1343;-69
2021/05/12 01:28:16;;;;;;;;;;;19.50;63.50;;;;;;5076292;22;2866;-65
2021/05/12 01:30:44;;;;;;;;;;;19.50;63.60;;;;;;5066776;28;1921;-64
2021/05/12 01:33:09;;;;;;;;;;;19.50;63.60;;;;;;5068874;28;1361;-65
2021/05/12 01:35:38;;;;;;;;;;;19.50;63.60;;;;;;5073804;28;1035;-66
2021/05/12 01:38:04;;;;;;;;;;;19.50;63.60;;;;;;5074793;28;1214;-65
2021/05/12 01:40:29;;;;;;;;;;;19.50;63.60;;;;;;5057287;28;1398;-65
2021/05/12 01:42:54;;;;;;;;;;;19.50;63.60;;;;;;5075067;28;1413;-65
2021/05/12 01:45:20;;;;;;;;;;;19.50;63.60;;;;;;5074841;28;1122;-65
2021/05/12 01:47:45;;;;;;;;;;;19.50;63.60;;;;;;5074998;28;1679;-66
2021/05/12 01:50:11;;;;;;;;;;;19.50;63.70;;;;;;5075240;28;1960;-65
2021/05/12 01:52:43;;;;;;;;;;;19.50;63.70;;;;;;5075267;28;1479;-65
2021/05/12 01:55:09;;;;;;;;;;;19.50;63.60;;;;;;5057023;28;1347;-65
2021/05/12 01:57:35;;;;;;;;;;;19.50;63.60;;;;;;5057022;28;1523;-65
2021/05/12 02:00:00;;;;;;;;;;;19.50;63.60;;;;;;5074878;28;1397;-65
2021/05/12 02:02:26;;;;;;;;;;;19.50;63.60;;;;;;5074786;28;1376;-65
2021/05/12 02:04:51;;;;;;;;;;;19.50;63.60;;;;;;5074866;28;1216;-65
2021/05/12 02:07:17;;;;;;;;;;;19.50;63.60;;;;;;5056548;28;1376;-64
2021/05/12 02:09:42;;;;;;;;;;;19.50;63.70;;;;;;5074636;28;1953;-65
2021/05/12 02:12:07;;;;;;;;;;;19.50;63.70;;;;;;5056681;28;1424;-65
2021/05/12 02:14:33;;;;;;;;;;;19.50;63.60;;;;;;5074819;28;1356;-66
2021/05/12 02:16:59;;;;;;;;;;;19.50;63.60;;;;;;5074257;28;1371;-66
2021/05/12 02:19:24;;;;;;;;;;;19.50;63.70;;;;;;5074389;28;1209;-66
2021/05/12 02:21:50;;;;;;;;;;;19.50;63.70;;;;;;5061175;28;1355;-65
2021/05/12 02:24:15;;;;;;;;;;;19.50;63.70;;;;;;5074427;28;1609;-65
2021/05/12 02:26:40;;;;;;;;;;;19.50;63.60;;;;;;5074043;28;1639;-65
2021/05/12 02:29:06;;;;;;;;;;;19.50;63.60;;;;;;5074028;28;1381;-65
2021/05/12 02:31:31;;;;;;;;;;;19.50;63.70;;;;;;5074159;28;1906;-66
2021/05/12 02:33:57;;;;;;;;;;;19.50;63.60;;;;;;5073754;28;1631;-65
2021/05/12 02:36:22;;;;;;;;;;;19.50;63.60;;;;;;5073808;28;1429;-64
2021/05/12 02:38:48;;;;;;;;;;;19.50;63.70;;;;;;5074083;28;1640;-65
2021/05/12 02:41:13;;;;;;;;;;;19.50;63.70;;;;;;5074015;28;1126;-65
2021/05/12 02:43:38;;;;;;;;;;;19.50;63.60;;;;;;5074202;28;1375;-64
2021/05/12 02:46:04;;;;;;;;;;;19.50;63.70;;;;;;5055789;28;1644;-65
2021/05/12 02:48:29;;;;;;;;;;;19.50;63.70;;;;;;5073870;28;1675;-66
2021/05/12 02:50:55;;;;;;;;;;;19.50;63.70;;;;;;5073676;28;1951;-64
2021/05/12 02:53:22;;;;;;;;;;;19.50;63.70;;;;;;5073819;28;1665;-65
2021/05/12 02:55:47;;;;;;;;;;;19.50;63.70;;;;;;5073533;28;1700;-66
2021/05/12 02:58:13;;;;;;;;;;;19.50;63.70;;;;;;5073823;28;1372;-65
2021/05/12 03:00:38;;;;;;;;;;;19.50;63.70;;;;;;5055938;28;1622;-66
2021/05/12 03:03:04;;;;;;;;;;;19.50;63.70;;;;;;5073815;28;1674;-66
2021/05/12 03:05:31;;;;;;;;;;;19.50;63.70;;;;;;5055475;28;1225;-66
2021/05/12 03:07:56;;;;;;;;;;;19.50;63.70;;;;;;5073659;28;1276;-66
2021/05/12 03:10:22;;;;;;;;;;;19.50;63.70;;;;;;5072227;28;1953;-65
2021/05/12 03:12:47;;;;;;;;;;;19.50;63.70;;;;;;5073571;28;1678;-66
2021/05/12 03:15:14;;;;;;;;;;;19.50;63.70;;;;;;5073192;28;1675;-65
2021/05/12 03:17:39;;;;;;;;;;;19.50;63.70;;;;;;5073326;28;1383;-65
2021/05/12 03:20:05;;;;;;;;;;;19.50;63.70;;;;;;5068456;28;1368;-65
2021/05/12 03:22:30;;;;;;;;;;;19.50;63.70;;;;;;5072071;28;1149;-64
2021/05/12 03:24:56;;;;;;;;;;;19.50;63.70;;;;;;5073312;28;1417;-64
2021/05/12 03:27:21;;;;;;;;;;;19.50;63.80;;;;;;5072990;28;1385;-66
2021/05/12 03:29:47;;;;;;;;;;;19.50;63.70;;;;;;5055020;28;1953;-65
2021/05/12 03:32:12;;;;;;;;;;;19.50;63.80;;;;;;5073135;28;1071;-64
2021/05/12 03:34:38;;;;;;;;;;;19.50;64.10;;;;;;5073143;28;1176;-64
2021/05/12 03:37:03;;;;;;;;;;;19.50;63.70;;;;;;5073037;28;1187;-65
2021/05/12 03:39:28;;;;;;;;;;;19.50;63.50;;;;;;5072985;28;1389;-65
2021/05/12 03:41:54;;;;;;;;;;;19.50;63.50;;;;;;5073231;28;1445;-65
2021/05/12 03:44:20;;;;;;;;;;;19.50;63.50;;;;;;5072834;28;1369;-65
2021/05/12 03:46:45;;;;;;;;;;;19.50;63.40;;;;;;5072321;28;1352;-65
2021/05/12 03:49:10;;;;;;;;;;;19.50;63.40;;;;;;5073009;28;1364;-66
2021/05/12 03:51:36;;;;;;;;;;;19.50;63.30;;;;;;5072887;28;1902;-65
2021/05/12 03:54:01;;;;;;;;;;;19.50;63.30;;;;;;5072969;28;1048;-66
2021/05/12 03:56:27;;;;;;;;;;;19.50;63.30;;;;;;5072769;28;1709;-66
2021/05/12 03:58:52;;;;;;;;;;;19.50;63.20;;;;;;5072901;28;1650;-65
2021/05/12 04:01:18;;;;;;;;;;;19.50;63.20;;;;;;5072804;28;1387;-66
2021/05/12 04:03:43;;;;;;;;;;;19.50;63.20;;;;;;5072798;28;1372;-66
2021/05/12 04:06:08;;;;;;;;;;;19.50;63.20;;;;;;5072634;28;1434;-66
2021/05/12 04:08:34;;;;;;;;;;;19.50;63.20;;;;;;5072687;28;1637;-66
2021/05/12 04:10:59;;;;;;;;;;;19.50;63.10;;;;;;5072734;28;1940;-66
2021/05/12 04:13:25;;;;;;;;;;;19.50;63.10;;;;;;5072688;28;1727;-66
2021/05/12 04:15:50;;;;;;;;;;;19.60;63.10;;;;;;5054391;28;1288;-66
2021/05/12 04:18:16;;;;;;;;;;;19.50;63.10;;;;;;5072947;28;1435;-66
2021/05/12 04:20:41;;;;;;;;;;;19.60;63.10;;;;;;5067649;28;1432;-65
2021/05/12 04:23:07;;;;;;;;;;;19.60;63.10;;;;;;5072594;28;1390;-65
2021/05/12 04:25:33;;;;;;;;;;;19.60;63.10;;;;;;5072219;28;1327;-65
2021/05/12 04:27:58;;;;;;;;;;;19.60;63.00;;;;;;5072543;28;1445;-65
2021/05/12 04:30:24;;;;;;;;;;;19.60;63.00;;;;;;5072685;28;1883;-65
2021/05/12 04:32:50;;;;;;;;;;;19.60;63.00;;;;;;5072959;28;1459;-65
2021/05/12 04:35:19;;;;;;;;;;;19.60;63.00;;;;;;5072431;28;1726;-65
2021/05/12 04:37:48;;;;;;;;;;;19.60;63.00;;;;;;5055150;28;1353;-65
2021/05/12 04:40:13;;;;;;;;;;;19.60;63.00;;;;;;5072633;28;1465;-65
2021/05/12 04:42:39;;;;;;;;;;;19.60;63.10;;;;;;5072792;28;1649;-65
2021/05/12 04:45:05;;;;;;;;;;;19.50;63.00;;;;;;5054307;28;1633;-65
2021/05/12 04:47:30;;;;;;;;;;;19.60;63.00;;;;;;5072624;28;1369;-65
2021/05/12 04:49:56;;;;;;;;;;;19.60;63.00;;;;;;5072257;28;1951;-65
2021/05/12 04:52:21;;;;;;;;;;;19.50;63.00;;;;;;5072525;28;1569;-65
2021/05/12 04:54:47;;;;;;;;;;;19.60;63.00;;;;;;5072413;28;1583;-66
2021/05/12 04:57:12;;;;;;;;;;;19.60;63.00;;;;;;5074641;28;1647;-65
2021/05/12 04:59:37;;;;;;;;;;;19.60;63.00;;;;;;5075671;28;1613;-65
2021/05/12 05:02:05;;;;;;;;;;;19.60;63.00;;;;;;5076331;28;1352;-66
2021/05/12 05:04:30;;;;;;;;;;;19.60;63.00;;;;;;5076002;28;1646;-65
2021/05/12 05:06:56;;;;;;;;;;;19.60;63.00;;;;;;5075759;28;1687;-65
2021/05/12 05:09:21;;;;;;;;;;;19.60;63.00;;;;;;5075753;28;1487;-66
2021/05/12 05:11:46;;;;;;;;;;;19.60;63.00;;;;;;5075796;28;1910;-65
2021/05/12 05:14:12;;;;;;;;;;;19.60;63.00;;;;;;5075788;28;1700;-65
2021/05/12 05:16:38;;;;;;;;;;;19.60;63.00;;;;;;5075022;28;1466;-65
2021/05/12 05:19:03;;;;;;;;;;;19.60;62.90;;;;;;5075430;28;1617;-65
2021/05/12 05:21:29;;;;;;;;;;;19.60;63.00;;;;;;5070848;28;1608;-65
2021/05/12 05:23:54;;;;;;;;;;;19.60;62.90;;;;;;5075613;28;1399;-66
2021/05/12 05:26:20;;;;;;;;;;;19.60;62.90;;;;;;5075574;28;1662;-66
2021/05/12 05:28:45;;;;;;;;;;;19.60;63.00;;;;;;5075261;28;1650;-66
2021/05/12 05:31:10;;;;;;;;;;;19.60;63.00;;;;;;5075704;28;1914;-66
2021/05/12 05:33:36;;;;;;;;;;;19.60;63.00;;;;;;5075376;28;1680;-66
2021/05/12 05:36:01;;;;;;;;;;;19.60;62.90;;;;;;5057141;28;1372;-66
2021/05/12 05:38:27;;;;;;;;;;;19.60;62.90;;;;;;5075258;28;1701;-65
2021/05/12 05:40:52;;;;;;;;;;;19.60;63.00;;;;;;5075442;28;1495;-66
2021/05/12 05:43:18;;;;;;;;;;;19.60;63.00;;;;;;5075275;28;1408;-66
2021/05/12 05:45:43;;;;;;;;;;;19.60;63.00;;;;;;5075005;28;1632;-65
2021/05/12 05:48:09;;;;;;;;;;;19.60;63.00;;;;;;5057189;28;1662;-66
2021/05/12 05:50:35;;;;;;;;;;;19.60;63.00;;;;;;5057448;28;1898;-65
2021/05/12 05:53:00;;;;;;;;;;;19.60;63.00;;;;;;5057061;28;1445;-65
2021/05/12 05:55:25;;;;;;;;;;;19.60;63.00;;;;;;5074925;28;1710;-65
2021/05/12 05:57:51;;;;;;;;;;;19.60;63.00;;;;;;5074689;28;1552;-66
2021/05/12 06:00:16;;;;;;;;;;;19.60;63.00;;;;;;5070851;28;1839;-64
2021/05/12 06:02:42;;;;;;;;;;;19.60;63.00;;;;;;5065596;28;2158;-67
2021/05/12 06:05:08;;;;;;;;;;;19.60;63.00;;;;;;5070819;28;1383;-68
2021/05/12 06:07:33;;;;;;;;;;;19.60;63.00;;;;;;5071907;28;1364;-65
2021/05/12 06:09:58;;;;;;;;;;;19.60;63.00;;;;;;5074500;28;1906;-65
2021/05/12 06:12:24;;;;;;;;;;;19.60;63.00;;;;;;5074560;28;1836;-65
2021/05/12 06:14:50;;;;;;;;;;;19.60;63.00;;;;;;5074721;28;1556;-65
2021/05/12 06:17:15;;;;;;;;;;;19.60;63.00;;;;;;5074390;28;1645;-64
2021/05/12 06:19:41;;;;;;;;;;;19.60;63.00;;;;;;5072121;28;1667;-65
2021/05/12 06:22:07;;;;;;;;;;;19.60;63.00;;;;;;5071835;28;1663;-65
2021/05/12 06:24:32;;;;;;;;;;;19.60;63.00;;;;;;5074443;28;1552;-66
2021/05/12 06:26:58;;;;;;;;;;;19.60;63.00;;;;;;5073994;28;1584;-67
2021/05/12 06:29:23;;;;;;;;;;;19.60;63.00;;;;;;5074248;28;1641;-67
2021/05/12 06:31:49;;;;;;;;;;;19.60;63.00;;;;;;5074053;28;1959;-65
2021/05/12 06:34:14;;;;;;;;;;;19.60;63.00;;;;;;5056539;28;1656;-65
2021/05/12 06:36:40;;;;;;;;;;;19.60;63.00;;;;;;5073778;28;1641;-64
2021/05/12 06:39:05;;;;;;;;;;;19.60;63.00;;;;;;5074127;28;1814;-64
2021/05/12 06:41:31;;;;;;;;;;;19.60;63.00;;;;;;5074004;28;1335;-65
2021/05/12 06:43:57;;;;;;;;;;;19.60;63.10;;;;;;5056304;28;1659;-65
2021/05/12 06:46:22;;;;;;;;;;;19.60;63.10;;;;;;5073764;28;1619;-65
2021/05/12 06:48:48;;;;;;;;;;;19.60;63.10;;;;;;5073792;28;1332;-65
2021/05/12 06:51:13;;;;;;;;;;;19.60;63.10;;;;;;5073818;28;1947;-66
2021/05/12 06:53:39;;;;;;;;;;;19.50;63.00;;;;;;5070093;28;2925;-65
2021/05/12 06:56:04;;;;;;;;;;;19.60;63.10;;;;;;5070680;28;1567;-64
2021/05/12 06:58:31;;;;;;;;;;;19.60;63.10;;;;;;5050601;28;1665;-64
2021/05/12 07:00:56;;;;;;;;;;;19.60;63.10;;;;;;5073813;28;1666;-64
2021/05/12 07:03:23;;;;;;;;;;;19.60;63.10;;;;;;5050058;28;1610;-65
2021/05/12 07:05:51;;;;;;;;;;;19.60;63.10;;;;;;5070955;28;1668;-63
2021/05/12 07:08:17;;;;;;;;;;;19.60;63.00;;;;;;5055675;28;1528;-62
2021/05/12 07:10:42;;;;;;;;;;;19.60;63.10;;;;;;5073605;28;1898;-64
2021/05/12 07:13:08;;;;;;;;;;;19.60;63.10;;;;;;5073345;28;1613;-63
2021/05/12 07:15:33;;;;;;;;;;;19.60;63.10;;;;;;5055288;28;1336;-63
2021/05/12 07:17:59;;;;;;;;;;;19.60;63.10;;;;;;5064873;28;1415;-63
2021/05/12 07:20:24;;;;;;;;;;;19.60;63.10;;;;;;5072321;28;1477;-63
2021/05/12 07:22:50;;;;;;;;;;;19.60;63.10;;;;;;5073478;28;1694;-63
2021/05/12 07:25:16;;;;;;;;;;;19.60;63.10;;;;;;5054995;28;1749;-63
2021/05/12 07:27:45;;;;;;;;;;;19.60;63.90;;;;;;5055597;28;1394;-63
2021/05/12 07:30:11;;;;;;;;;;;19.60;63.10;;;;;;5073361;28;1905;-62
2021/05/12 07:32:36;;;;;;;;;;;19.60;63.10;;;;;;5073271;28;1078;-62
2021/05/12 07:35:02;;;;;;;;;;;19.60;63.10;;;;;;5072190;28;1222;-62
2021/05/12 07:37:27;;;;;;;;;;;19.60;63.10;;;;;;5072521;28;1576;-62
2021/05/12 07:39:53;;;;;;;;;;;19.60;63.10;;;;;;5072857;28;1295;-62
2021/05/12 07:42:19;;;;;;;;;;;19.60;63.10;;;;;;5073251;28;1638;-62
2021/05/12 07:44:46;;;;;;;;;;;19.60;63.10;;;;;;5073260;28;1501;-62
2021/05/12 07:47:12;;;;;;;;;;;19.60;63.10;;;;;;5072808;28;1612;-64
2021/05/12 07:49:41;;;;;;;;;;;19.60;63.10;;;;;;5073034;28;1749;-62
2021/05/12 07:52:13;;;;;;;;;;;19.50;63.00;;;;;;5072894;28;1977;-63
2021/05/12 07:54:38;;;;;;;;;;;19.60;63.10;;;;;;5056003;28;1484;-63
2021/05/12 07:57:04;;;;;;;;;;;19.60;63.10;;;;;;5073104;28;1000;-62
2021/05/12 07:59:29;;;;;;;;;;;19.60;63.10;;;;;;5072869;28;1490;-62
2021/05/12 08:01:55;;;;;;;;;;;19.60;63.10;;;;;;5072951;28;1706;-62
2021/05/12 08:04:20;;;;;;;;;;;19.60;63.10;;;;;;5072914;28;1712;-63
2021/05/12 08:06:46;;;;;;;;;;;19.50;63.10;;;;;;5072610;28;1280;-62
2021/05/12 08:09:11;;;;;;;;;;;19.60;63.10;;;;;;5072430;28;1505;-62
2021/05/12 08:11:37;;;;;;;;;;;19.50;63.10;;;;;;5072771;28;1886;-63
2021/05/12 08:14:03;;;;;;;;;;;19.60;63.10;;;;;;5073024;28;1338;-64
2021/05/12 08:16:28;;;;;;;;;;;19.50;63.10;;;;;;5072914;28;1596;-63
2021/05/12 08:18:54;;;;;;;;;;;19.50;63.10;;;;;;5073059;28;1293;-64
2021/05/12 08:21:19;;;;;;;;;;;19.50;63.20;;;;;;5067996;28;1389;-62
2021/05/12 08:23:45;;;;;;;;;;;19.50;63.10;;;;;;5072721;28;1385;-62
2021/05/12 08:26:10;;;;;;;;;;;19.50;63.20;;;;;;5054520;28;1616;-62
2021/05/12 08:28:38;;;;;;;;;;;19.50;63.20;;;;;;5072432;28;1710;-62
2021/05/12 08:31:04;;;;;;;;;;;19.50;63.20;;;;;;5073252;28;1914;-63
2021/05/12 08:33:30;;;;;;;;;;;19.50;63.20;;;;;;5058570;28;1498;-63
2021/05/12 08:35:55;;;;;;;;;;;19.50;63.20;;;;;;5076393;28;1433;-62
2021/05/12 08:38:24;;;;;;;;;;;19.50;63.20;;;;;;5058277;28;1546;-63
2021/05/12 08:40:50;;;;;;;;;;;19.50;63.20;;;;;;5076492;28;1656;-64
2021/05/12 08:43:15;;;;;;;;;;;19.50;63.20;;;;;;5058267;28;1583;-63
2021/05/12 08:45:43;;;;;;;;;;;19.50;63.20;;;;;;5075929;28;1627;-63
2021/05/12 08:48:11;;;;;;;;;;;19.50;63.20;;;;;;5074529;28;1357;-62
2021/05/12 08:50:37;;;;;;;;;;;19.50;63.30;;;;;;5056892;28;1897;-63
2021/05/12 08:53:03;;;;;;;;;;;19.50;63.20;;;;;;5056849;28;1611;-63
2021/05/12 08:55:28;;;;;;;;;;;19.50;63.30;;;;;;5056483;28;1385;-62
2021/05/12 08:57:53;;;;;;;;;;;19.50;63.30;;;;;;5057178;28;1255;-63
2021/05/12 09:00:19;;;;;;;;;;;19.50;63.30;;;;;;5075159;28;1716;-63
2021/05/12 09:02:45;;;;;;;;;;;19.50;63.30;;;;;;5075593;28;1874;-63
2021/05/12 09:05:10;;;;;;;;;;;19.50;63.30;;;;;;5057958;28;1397;-66
2021/05/12 09:07:36;;;;;;;;;;;19.50;63.30;;;;;;5073521;28;2009;-63
2021/05/12 09:10:02;;;;;;;;;;;19.50;63.30;;;;;;5071011;28;1969;-65
2021/05/12 09:12:40;;;;;;;;;;;19.50;63.30;;;;;;5069930;28;1356;-63
2021/05/12 09:15:06;;;;;;;;;;;19.50;63.30;;;;;;5061811;28;1606;-63
2021/05/12 09:17:32;;;;;;;;;;;19.50;63.30;;;;;;5057404;28;1498;-63
2021/05/12 09:19:58;;;;;;;;;;;19.50;63.30;;;;;;5070094;28;1986;-62
2021/05/12 09:22:23;;;;;;;;;;;19.50;63.30;;;;;;5071326;28;1408;-64
2021/05/12 09:24:50;;;;;;;;;;;19.50;63.30;;;;;;5056529;28;1574;-62
2021/05/12 09:27:19;;;;;;;;;;;19.50;63.30;;;;;;5073023;28;1444;-63
2021/05/12 09:29:45;;;;;;;;;;;19.50;63.40;;;;;;5056744;28;1609;-63
2021/05/12 09:32:17;;;;;;;;;;;19.50;63.30;;;;;;5074534;28;2250;-63
2021/05/12 09:34:56;;;;;;;;;;;19.50;63.40;;;;;;5074193;28;1374;-63
2021/05/12 09:37:26;;;;;;;;;;;19.50;63.40;;;;;;5074232;28;1427;-64
2021/05/12 09:39:51;;;;;;;;;;;19.50;63.40;;;;;;5072197;28;1609;-65
2021/05/12 09:42:17;;;;;;;;;;;19.50;63.40;;;;;;5055921;28;1599;-65
2021/05/12 09:44:43;;;;;;;;;;;19.50;63.40;;;;;;5055826;28;1682;-65
2021/05/12 09:47:08;;;;;;;;;;;19.50;63.40;;;;;;5073646;28;1557;-65
2021/05/12 09:49:34;;;;;;;;;;;19.50;63.40;;;;;;5055903;28;1670;-65
2021/05/12 09:52:01;;;;;;;;;;;19.50;63.50;;;;;;5073907;28;1898;-65
2021/05/12 09:54:29;;;;;;;;;;;19.50;63.40;;;;;;5074057;28;1456;-65
2021/05/12 09:56:57;;;;;;;;;;;19.50;63.40;;;;;;5073736;28;1383;-65
2021/05/12 09:59:24;;;;;;;;;;;19.50;63.40;;;;;;5073788;28;1300;-65
2021/05/12 10:01:53;;;;;;;;;;;19.50;63.50;;;;;;5073789;28;1692;-66
2021/05/12 10:04:23;;;;;;;;;;;19.50;63.50;;;;;;5073834;28;1381;-66
2021/05/12 10:06:50;;;;;;;;;;;19.50;63.50;;;;;;5055741;28;1267;-65
2021/05/12 10:09:16;;;;;;;;;;;19.50;63.50;;;;;;5073596;28;1680;-66
2021/05/12 10:11:42;;;;;;;;;;;19.50;63.50;;;;;;5073684;28;1910;-66
2021/05/12 10:14:07;;;;;;;;;;;19.40;63.40;;;;;;5073351;28;1360;-65
2021/05/12 10:16:33;;;;;;;;;;;19.50;63.50;;;;;;5073296;28;1394;-65
2021/05/12 10:18:58;;;;;;;;;;;19.40;63.40;;;;;;5055497;28;1586;-67
2021/05/12 10:21:23;;;;;;;;;;;19.50;63.50;;;;;;5055463;28;1479;-64
2021/05/12 10:23:49;;;;;;;;;;;19.40;63.40;;;;;;5072052;28;1437;-65
2021/05/12 10:26:14;;;;;;;;;;;19.50;63.50;;;;;;5055251;28;1566;-65
2021/05/12 10:28:41;;;;;;;;;;;19.50;63.50;;;;;;5071661;28;1680;-64
2021/05/12 10:31:06;;;;;;;;;;;19.50;63.50;;;;;;5071948;28;1902;-64
2021/05/12 10:33:44;;;;;;;;;;;19.50;63.50;;;;;;5072015;28;1573;-65
2021/05/12 10:36:09;;;;;;;;;;;19.50;63.60;;;;;;5072879;28;1569;-65
2021/05/12 10:38:35;;;;;;;;;;;19.40;63.50;;;;;;5072958;28;1562;-65
2021/05/12 10:41:00;;;;;;;;;;;19.40;63.50;;;;;;5073202;28;1799;-66
2021/05/12 10:43:35;;;;;;;;;;;19.40;63.50;;;;;;5072320;28;1426;-65
2021/05/12 10:46:06;;;;;;;;;;;19.50;63.60;;;;;;5071931;28;1635;-65
2021/05/12 10:48:50;;;;;;;;;;;19.40;63.60;;;;;;5071017;28;1354;-64
2021/05/12 10:51:19;;;;;;;;;;;19.40;63.50;;;;;;5070750;28;1894;-65
2021/05/12 10:53:45;;;;;;;;;;;19.40;63.50;;;;;;5072262;28;1699;-66
2021/05/12 10:56:11;;;;;;;;;;;19.40;63.60;;;;;;5072496;28;1336;-65
2021/05/12 10:58:37;;;;;;;;;;;19.40;63.60;;;;;;5072633;28;1658;-66
2021/05/12 11:01:04;;;;;;;;;;;19.40;63.60;;;;;;5072760;28;1654;-65
2021/05/12 11:03:48;;;;;;;;;;;19.40;63.50;;;;;;5071444;28;1347;-65
2021/05/12 11:06:13;;;;;;;;;;;19.40;63.60;;;;;;5072032;28;1345;-66
2021/05/12 11:08:57;;;;;;;;;;;19.40;63.60;;;;;;5072450;28;1640;-66
2021/05/12 11:11:23;;;;;;;;;;;19.40;63.60;;;;;;5072314;28;1960;-66
2021/05/12 11:13:48;;;;;;;;;;;19.40;63.60;;;;;;5072231;28;1354;-66
2021/05/12 11:16:22;;;;;;;;;;;19.40;63.60;;;;;;5072214;28;1404;-67
2021/05/12 11:18:51;;;;;;;;;;;19.40;63.60;;;;;;5070873;28;1527;-66
2021/05/12 11:21:17;;;;;;;;;;;19.40;63.60;;;;;;5071007;28;1427;-66
2021/05/12 11:24:04;;;;;;;;;;;19.40;63.60;;;;;;5072006;28;1451;-66
2021/05/12 11:32:01;;;;;;;;;;;19.40;63.70;;;;;;5071914;28;1902;-66
2021/05/12 11:34:27;;;;;;;;;;;19.40;63.60;;;;;;5072143;28;1686;-66
2021/05/12 11:37:10;;;;;;;;;;;19.40;63.70;;;;;;5071682;28;1347;-66
2021/05/12 11:39:36;;;;;;;;;;;19.40;63.70;;;;;;5072734;28;1599;-67
2021/05/12 11:42:01;;;;;;;;;;;19.40;63.70;;;;;;5055186;28;1786;-66
2021/05/12 11:44:27;;;;;;;;;;;19.40;63.70;;;;;;5063276;28;1566;-65
2021/05/12 11:46:52;;;;;;;;;;;19.40;63.70;;;;;;5064144;22;1953;-63
2021/05/12 11:49:20;;;;;;;;;;;19.40;63.70;;;;;;5084414;28;1519;-64
2021/05/12 11:51:49;;;;;;;;;;;19.40;63.70;;;;;;5086052;28;1958;-64
2021/05/12 11:54:23;;;;;;;;;;;19.40;63.70;;;;;;5091538;28;1364;-64
2021/05/12 11:56:49;;;;;;;;;;;19.40;63.70;;;;;;5089733;28;1801;-64
2021/05/12 11:59:15;;;;;;;;;;;19.40;63.70;;;;;;5092191;28;1392;-63
2021/05/12 12:01:44;;;;;;;;;;;19.40;63.70;;;;;;5091956;28;1560;-63
2021/05/12 12:04:27;;;;;;;;;;;19.40;63.70;;;;;;5089446;28;1362;-63
2021/05/12 12:06:53;;;;;;;;;;;19.40;64.50;;;;;;5084083;28;1071;-63
2021/05/12 12:09:18;;;;;;;;;;;19.40;63.70;;;;;;5091419;28;1384;-63
2021/05/12 12:11:44;;;;;;;;;;;19.40;63.80;;;;;;5091509;28;1894;-64
2021/05/12 12:14:09;;;;;;;;;;;19.40;63.80;;;;;;5091222;28;1099;-63
2021/05/12 12:16:35;;;;;;;;;;;19.40;63.70;;;;;;5091173;28;1142;-63
2021/05/12 12:19:16;;;;;;;;;;;19.40;63.70;;;;;;5092540;28;1341;-63
2021/05/12 12:21:43;;;;;;;;;;;19.40;63.80;;;;;;5072933;28;1226;-63
2021/05/12 12:24:29;;;;;;;;;;;19.40;63.80;;;;;;5091352;28;1200;-63
2021/05/12 12:26:56;;;;;;;;;;;19.40;63.80;;;;;;5092155;28;1161;-63
2021/05/12 12:29:22;;;;;;;;;;;19.40;63.80;;;;;;5092647;28;1246;-63
2021/05/12 12:31:49;;;;;;;;;;;19.40;63.80;;;;;;5091844;28;1898;-64
2021/05/12 12:34:16;;;;;;;;;;;19.40;63.70;;;;;;5091346;28;1150;-64
2021/05/12 12:36:48;;;;;;;;;;;19.40;63.80;;;;;;5090903;28;1186;-64
2021/05/12 12:39:14;;;;;;;;;;;19.40;63.80;;;;;;5092699;28;1224;-64
2021/05/12 12:41:39;;;;;;;;;;;19.40;63.80;;;;;;5092528;28;1098;-64
2021/05/12 12:44:05;;;;;;;;;;;19.40;64.20;;;;;;5090945;28;1131;-64
2021/05/12 12:46:30;;;;;;;;;;;19.40;63.80;;;;;;5091952;28;1090;-65
2021/05/12 12:48:56;;;;;;;;;;;19.40;63.80;;;;;;5092150;28;1339;-64
2021/05/12 12:51:34;;;;;;;;;;;19.40;63.80;;;;;;5092223;28;1909;-64
2021/05/12 12:53:59;;;;;;;;;;;19.40;63.80;;;;;;5092107;28;964;-63
2021/05/12 12:56:25;;;;;;;;;;;19.40;63.80;;;;;;5091899;28;1185;-63
2021/05/12 12:59:10;;;;;;;;;;;19.40;63.80;;;;;;5090691;28;1523;-63
2021/05/12 13:01:36;;;;;;;;;;;19.40;63.80;;;;;;5089575;28;1206;-63
2021/05/12 13:04:18;;;;;;;;;;;19.40;63.90;;;;;;5091172;28;1150;-63
2021/05/12 13:06:43;;;;;;;;;;;19.40;63.80;;;;;;5092028;28;1125;-63
2021/05/12 13:09:27;;;;;;;;;;;19.40;63.90;;;;;;5090897;28;1290;-63
2021/05/12 13:11:53;;;;;;;;;;;19.40;63.90;;;;;;5092148;28;1894;-64
2021/05/12 13:14:19;;;;;;;;;;;19.40;63.90;;;;;;5089813;28;1846;-65
2021/05/12 13:16:44;;;;;;;;;;;19.40;63.90;;;;;;5091542;28;1232;-65
2021/05/12 13:19:10;;;;;;;;;;;19.40;63.90;;;;;;5091970;28;1370;-65
2021/05/12 13:21:39;;;;;;;;;;;19.40;63.90;;;;;;5086763;28;1188;-65
2021/05/12 13:24:05;;;;;;;;;;;19.40;63.90;;;;;;5085548;28;2558;-62
2021/05/12 13:26:34;;;;;;;;;;;19.40;63.90;;;;;;5082951;28;2454;-65
2021/05/12 13:29:00;;;;;;;;;;;19.40;63.90;;;;;;5072215;28;1328;-65
2021/05/12 13:31:29;;;;;;;;;;;19.40;63.90;;;;;;5086448;28;1909;-66
2021/05/12 13:33:55;;;;;;;;;;;19.40;63.90;;;;;;5091496;28;1222;-66
2021/05/12 13:36:21;;;;;;;;;;;19.40;63.90;;;;;;5088445;28;1386;-66
2021/05/12 13:38:49;;;;;;;;;;;19.40;63.90;;;;;;5092017;28;1285;-65
2021/05/12 13:41:14;;;;;;;;;;;19.40;63.90;;;;;;5087519;28;2344;-65
2021/05/12 13:43:40;;;;;;;;;;;19.40;64.00;;;;;;5093810;28;1103;-64
2021/05/12 13:46:05;;;;;;;;;;;19.40;63.90;;;;;;5082944;28;1265;-65
2021/05/12 13:48:31;;;;;;;;;;;19.40;63.90;;;;;;5086429;28;1310;-65
2021/05/12 13:50:57;;;;;;;;;;;19.40;64.70;;;;;;5085704;28;1910;-64
2021/05/12 13:53:42;;;;;;;;;;;19.40;63.90;;;;;;5083900;28;1234;-66
2021/05/12 13:56:15;;;;;;;;;;;19.40;63.90;;;;;;5088225;28;1562;-66
2021/05/12 14:01:54;;;;;;;;;;;19.40;64.00;;;;;;5072285;28;1194;-64
2021/05/12 14:04:20;;;;;;;;;;;19.40;64.00;;;;;;5072644;28;1733;-66
2021/05/12 14:06:45;;;;;;;;;;;19.40;64.00;;;;;;5082527;28;1394;-65
2021/05/12 14:09:23;;;;;;;;;;;19.40;64.00;;;;;;5076030;28;1669;-65
2021/05/12 14:17:12;;;;;;;;;;;19.40;64.00;;;;;;5080312;28;1529;-65
2021/05/12 14:19:37;;;;;;;;;;;19.40;64.00;;;;;;5093408;28;1587;-64
2021/05/12 14:22:03;;;;;;;;;;;19.40;64.00;;;;;;5094468;28;1580;-64
2021/05/12 14:24:31;;;;;;;;;;;19.40;64.00;;;;;;5094431;28;1630;-65
2021/05/12 14:26:57;;;;;;;;;;;19.40;64.00;;;;;;5092911;28;1463;-65
2021/05/12 14:29:31;;;;;;;;;;;19.40;64.00;;;;;;5094206;28;1447;-64
2021/05/12 14:31:57;;;;;;;;;;;19.40;64.10;;;;;;5094418;28;1910;-64
2021/05/12 14:34:22;;;;;;;;;;;19.40;64.00;;;;;;5093114;28;1264;-65
2021/05/12 14:36:50;;;;;;;;;;;19.40;64.00;;;;;;5093812;28;1493;-64
2021/05/12 14:39:17;;;;;;;;;;;19.40;64.00;;;;;;5094352;28;1793;-64
2021/05/12 14:41:42;;;;;;;;;;;19.30;64.00;;;;;;5093909;28;1402;-64